createdAt,value
2019-03-25T00:01:40.046Z,97471.64
2019-03-25T00:04:12.797Z,97470.52
2019-03-25T00:06:46.166Z,97473.52
2019-03-25T00:09:18.921Z,97470.33
2019-03-25T00:11:51.703Z,97462.48
2019-03-25T00:14:24.304Z,97463.25
2019-03-25T00:16:57.267Z,97461.73
2019-03-25T00:19:29.591Z,97459.29
2019-03-25T00:22:02.188Z,97456.13
2019-03-25T00:24:39.012Z,97456.89
2019-03-25T00:27:08.327Z,97454.84
2019-03-25T00:29:40.522Z,97446.25
2019-03-25T00:32:13.279Z,97442.56
2019-03-25T00:34:45.425Z,97441.09
2019-03-25T00:37:17.587Z,97427.30
2019-03-25T00:39:50.328Z,97427.97
2019-03-25T00:42:22.810Z,97425.81
2019-03-25T00:44:55.195Z,97428.02
2019-03-25T00:47:28.804Z,97422.33
2019-03-25T00:50:01.199Z,97421.53
2019-03-25T00:52:33.416Z,97415.84
2019-03-25T00:55:05.722Z,97409.80
2019-03-25T00:57:37.957Z,97408.13
2019-03-25T01:00:11.553Z,97401.73
2019-03-25T01:02:46.703Z,97398.02
2019-03-25T01:05:19.739Z,97402.09
2019-03-25T01:07:52.225Z,97400.21
2019-03-25T01:10:24.571Z,97394.37
2019-03-25T01:12:57.362Z,97396.65
2019-03-25T01:15:29.686Z,97392.77
2019-03-25T01:18:02.246Z,97398.59
2019-03-25T01:20:34.451Z,97391.22
2019-03-25T01:23:06.848Z,97389.37
2019-03-25T01:25:39.079Z,97390.48
2019-03-25T01:28:11.408Z,97390.04
2019-03-25T01:30:43.576Z,97386.28
2019-03-25T01:33:15.716Z,97383.51
2019-03-25T01:35:47.959Z,97379.05
2019-03-25T01:38:20.200Z,97369.86
2019-03-25T01:40:52.482Z,97373.33
2019-03-25T01:43:24.726Z,97369.44
2019-03-25T01:45:56.998Z,97362.03
2019-03-25T01:48:29.167Z,97361.81
2019-03-25T01:51:01.877Z,97357.84
2019-03-25T01:53:34.124Z,97358.59
2019-03-25T01:56:06.367Z,97354.45
2019-03-25T01:58:38.380Z,97342.61
2019-03-25T02:01:10.663Z,97347.73
2019-03-25T02:03:44.130Z,97346.32
2019-03-25T02:06:16.373Z,97344.12
2019-03-25T02:08:49.769Z,97337.58
2019-03-25T02:11:22.427Z,97336.52
2019-03-25T02:13:55.127Z,97336.73
2019-03-25T02:16:27.402Z,97328.38
2019-03-25T02:18:59.680Z,97325.95
2019-03-25T02:21:31.924Z,97323.30
2019-03-25T02:24:04.059Z,97323.91
2019-03-25T02:26:36.246Z,97322.84
2019-03-25T02:29:08.496Z,97319.98
2019-03-25T02:31:40.779Z,97323.55
2019-03-25T02:34:13.037Z,97311.28
2019-03-25T02:36:45.341Z,97308.45
2019-03-25T02:39:17.602Z,97299.49
2019-03-25T02:41:49.849Z,97294.09
2019-03-25T02:44:22.052Z,97292.64
2019-03-25T02:46:54.416Z,97290.47
2019-03-25T02:49:26.643Z,97295.59
2019-03-25T02:51:58.896Z,97292.72
2019-03-25T02:54:31.149Z,97285.11
2019-03-25T02:57:04.729Z,97283.03
2019-03-25T02:59:37.008Z,97284.56
2019-03-25T03:02:09.235Z,97279.56
2019-03-25T03:04:42.092Z,97281.45
2019-03-25T03:07:16.414Z,97283.39
2019-03-25T03:09:48.603Z,97272.16
2019-03-25T03:12:21.983Z,97276.84
2019-03-25T03:14:54.126Z,97276.69
2019-03-25T03:17:27.770Z,97278.81
2019-03-25T03:20:00.083Z,97276.75
2019-03-25T03:22:32.507Z,97271.25
2019-03-25T03:25:06.270Z,97274.30
2019-03-25T03:27:38.490Z,97267.19
2019-03-25T03:30:11.825Z,97263.29
2019-03-25T03:32:44.000Z,97259.50
2019-03-25T03:35:16.361Z,97257.77
2019-03-25T03:37:49.520Z,97253.09
2019-03-25T03:40:21.946Z,97252.57
2019-03-25T03:42:55.267Z,97256.12
2019-03-25T03:45:30.440Z,97250.72
2019-03-25T03:48:08.099Z,97253.81
2019-03-25T03:50:42.729Z,97251.08
2019-03-25T03:53:18.056Z,97244.88
2019-03-25T03:56:11.563Z,97245.86
2019-03-25T03:58:32.584Z,97255.31
2019-03-25T04:01:06.313Z,97256.06
2019-03-25T04:03:40.662Z,97244.36
2019-03-25T04:06:13.730Z,97246.66
2019-03-25T04:08:45.935Z,97247.99
2019-03-25T04:11:30.334Z,97248.69
2019-03-25T04:14:03.271Z,97247.63
2019-03-25T04:16:37.154Z,97247.23
2019-03-25T04:19:11.665Z,97244.22
2019-03-25T04:21:45.231Z,97247.53
2019-03-25T04:24:17.446Z,97245.94
2019-03-25T04:26:51.057Z,97241.02
2019-03-25T04:29:23.276Z,97237.02
2019-03-25T04:31:56.558Z,97233.69
2019-03-25T04:34:31.390Z,97238.73
2019-03-25T04:37:03.519Z,97238.55
2019-03-25T04:39:35.627Z,97241.45
2019-03-25T04:42:07.779Z,97239.03
2019-03-25T04:44:40.044Z,97241.70
2019-03-25T04:47:12.175Z,97242.02
2019-03-25T04:49:45.273Z,97244.19
2019-03-25T04:52:18.352Z,97245.83
2019-03-25T04:54:50.500Z,97235.95
2019-03-25T04:57:23.357Z,97233.38
2019-03-25T04:59:56.869Z,97236.00
2019-03-25T05:02:29.668Z,97238.03
2019-03-25T05:05:04.119Z,97236.09
2019-03-25T05:07:36.560Z,97230.09
2019-03-25T05:10:11.630Z,97230.67
2019-03-25T05:12:47.176Z,97228.20
2019-03-25T05:15:19.447Z,97227.23
2019-03-25T05:17:52.992Z,97224.61
2019-03-25T05:20:25.263Z,97220.84
2019-03-25T05:22:57.529Z,97218.66
2019-03-25T05:25:30.108Z,97218.37
2019-03-25T05:28:02.249Z,97216.28
2019-03-25T05:30:34.378Z,97215.08
2019-03-25T05:33:06.707Z,97215.16
2019-03-25T05:35:40.096Z,97210.33
2019-03-25T05:38:12.164Z,97203.87
2019-03-25T05:40:44.842Z,97211.89
2019-03-25T05:43:17.101Z,97213.63
2019-03-25T05:45:49.787Z,97202.87
2019-03-25T05:48:22.783Z,97211.80
2019-03-25T05:50:56.222Z,97208.81
2019-03-25T05:53:28.381Z,97217.61
2019-03-25T05:56:00.538Z,97215.65
2019-03-25T05:58:32.860Z,97222.73
2019-03-25T06:01:05.183Z,97225.72
2019-03-25T06:03:39.205Z,97226.95
2019-03-25T06:06:12.128Z,97229.86
2019-03-25T06:08:44.570Z,97221.11
2019-03-25T06:11:16.947Z,97219.75
2019-03-25T06:13:52.224Z,97217.73
2019-03-25T06:16:25.969Z,97215.53
2019-03-25T06:18:58.841Z,97223.59
2019-03-25T06:21:32.285Z,97215.03
2019-03-25T06:24:05.084Z,97222.14
2019-03-25T06:26:37.873Z,97222.14
2019-03-25T06:29:10.388Z,97221.74
2019-03-25T06:31:42.894Z,97217.73
2019-03-25T06:34:15.214Z,97216.77
2019-03-25T06:36:47.552Z,97219.95
2019-03-25T06:39:20.827Z,97219.13
2019-03-25T06:41:53.248Z,97216.63
2019-03-25T06:44:25.392Z,97209.02
2019-03-25T06:46:58.156Z,97217.38
2019-03-25T06:49:30.822Z,97212.95
2019-03-25T06:52:03.028Z,97209.03
2019-03-25T06:54:35.358Z,97214.67
2019-03-25T06:57:07.773Z,97206.84
2019-03-25T06:59:40.030Z,97205.27
2019-03-25T07:02:13.385Z,97200.15
2019-03-25T07:04:45.637Z,97201.72
2019-03-25T07:07:18.015Z,97201.38
2019-03-25T07:09:50.247Z,97198.84
2019-03-25T07:12:23.535Z,97200.06
2019-03-25T07:14:55.946Z,97193.45
2019-03-25T07:17:31.074Z,97200.39
2019-03-25T07:20:03.285Z,97196.48
2019-03-25T07:22:35.987Z,97193.31
2019-03-25T07:25:08.336Z,97195.34
2019-03-25T07:27:40.548Z,97196.64
2019-03-25T07:30:13.175Z,97187.58
2019-03-25T07:32:46.017Z,97193.94
2019-03-25T07:35:18.172Z,97189.20
2019-03-25T07:37:50.484Z,97197.66
2019-03-25T07:40:22.768Z,97190.14
2019-03-25T07:42:55.089Z,97184.59
2019-03-25T07:45:27.197Z,97184.23
2019-03-25T07:47:59.437Z,97192.33
2019-03-25T07:50:31.816Z,97187.19
2019-03-25T07:53:05.212Z,97194.24
2019-03-25T07:55:37.543Z,97188.55
2019-03-25T07:58:09.892Z,97188.91
2019-03-25T08:00:42.470Z,97186.89
2019-03-25T08:03:14.514Z,97189.30
2019-03-25T08:05:46.660Z,97188.30
2019-03-25T08:08:21.171Z,97185.67
2019-03-25T08:10:53.465Z,97185.09
2019-03-25T08:13:25.744Z,97186.83
2019-03-25T08:15:58.243Z,97180.86
2019-03-25T08:18:30.540Z,97173.56
2019-03-25T08:21:02.939Z,97170.78
2019-03-25T08:23:35.216Z,97162.77
2019-03-25T08:26:07.429Z,97160.43
2019-03-25T08:28:40.184Z,97156.41
2019-03-25T08:31:12.441Z,97149.95
2019-03-25T08:33:44.657Z,97144.81
2019-03-25T08:36:19.447Z,97148.15
2019-03-25T08:38:51.966Z,97147.23
2019-03-25T08:41:24.355Z,97141.84
2019-03-25T08:43:56.540Z,97141.27
2019-03-25T08:46:28.848Z,97145.66
2019-03-25T08:49:01.039Z,97142.70
2019-03-25T08:51:34.007Z,97139.67
2019-03-25T08:54:06.002Z,97139.18
2019-03-25T08:56:38.240Z,97138.86
2019-03-25T08:59:11.834Z,97135.39
2019-03-25T09:01:44.005Z,97140.26
2019-03-25T09:04:16.161Z,97136.17
2019-03-25T09:06:48.469Z,97136.72
2019-03-25T09:09:20.661Z,97138.67
2019-03-25T09:11:53.604Z,97132.97
2019-03-25T09:14:25.861Z,97132.91
2019-03-25T09:17:00.585Z,97137.80
2019-03-25T09:19:35.147Z,97123.44
2019-03-25T09:22:09.477Z,97123.02
2019-03-25T09:24:42.282Z,97113.02
2019-03-25T09:27:14.540Z,97107.53
2019-03-25T09:29:46.918Z,97107.23
2019-03-25T09:32:19.117Z,97102.64
2019-03-25T09:34:51.462Z,97095.76
2019-03-25T09:37:23.787Z,97091.28
2019-03-25T09:39:56.050Z,97096.72
2019-03-25T09:42:28.150Z,97092.80
2019-03-25T09:45:00.375Z,97087.89
2019-03-25T09:47:32.810Z,97090.72
2019-03-25T09:50:05.372Z,97084.14
2019-03-25T09:52:39.049Z,97087.86
2019-03-25T09:55:11.653Z,97088.48
2019-03-25T09:57:44.395Z,97085.28
2019-03-25T10:00:16.695Z,97079.25
2019-03-25T10:02:49.422Z,97075.13
2019-03-25T10:05:21.564Z,97084.45
2019-03-25T10:07:53.693Z,97069.27
2019-03-25T10:10:25.792Z,97068.09
2019-03-25T10:12:58.163Z,97072.05
2019-03-25T10:15:31.112Z,97067.80
2019-03-25T10:18:03.206Z,97060.25
2019-03-25T10:20:37.193Z,97067.63
2019-03-25T10:23:09.227Z,97066.30
2019-03-25T10:25:42.696Z,97059.03
2019-03-25T10:28:14.868Z,97060.03
2019-03-25T10:30:47.551Z,97057.06
2019-03-25T10:33:20.494Z,97050.94
2019-03-25T10:35:53.989Z,97048.63
2019-03-25T10:38:26.751Z,97047.77
2019-03-25T10:40:59.213Z,97053.45
2019-03-25T10:43:31.828Z,97046.50
2019-03-25T10:46:03.858Z,97044.56
2019-03-25T10:48:36.021Z,97036.69
2019-03-25T10:51:10.935Z,97028.75
2019-03-25T10:53:43.181Z,97028.63
2019-03-25T10:56:15.175Z,97023.53
2019-03-25T10:58:50.705Z,97021.29
2019-03-25T11:01:23.482Z,97013.91
2019-03-25T11:03:56.254Z,97013.72
2019-03-25T11:06:28.437Z,97006.95
2019-03-25T11:09:01.349Z,97006.67
2019-03-25T11:11:35.562Z,97002.49
2019-03-25T11:14:08.124Z,96989.42
2019-03-25T11:16:41.585Z,96988.80
2019-03-25T11:19:13.771Z,96983.05
2019-03-25T11:21:46.691Z,96978.45
2019-03-25T11:24:20.416Z,96969.58
2019-03-25T11:26:52.421Z,96962.34
2019-03-25T11:29:25.164Z,96951.30
2019-03-25T11:31:58.515Z,96960.33
2019-03-25T11:34:30.741Z,96941.56
2019-03-25T11:37:04.066Z,96957.47
2019-03-25T11:39:37.385Z,96938.05
2019-03-25T11:42:10.366Z,96934.55
2019-03-25T11:44:43.000Z,96941.55
2019-03-25T11:47:18.270Z,96932.50
2019-03-25T11:49:50.561Z,96942.83
2019-03-25T11:52:22.657Z,96931.77
2019-03-25T11:54:57.210Z,96927.45
2019-03-25T11:57:29.392Z,96933.17
2019-03-25T12:00:02.248Z,96922.72
2019-03-25T12:02:35.383Z,96913.34
2019-03-25T12:05:09.310Z,96911.30
2019-03-25T12:07:43.259Z,96913.23
2019-03-25T12:10:16.351Z,96910.95
2019-03-25T12:12:49.108Z,96898.39
2019-03-25T12:15:21.997Z,96894.17
2019-03-25T12:17:54.259Z,96888.80
2019-03-25T12:20:26.477Z,96890.87
2019-03-25T12:22:58.621Z,96884.17
2019-03-25T12:25:32.220Z,96890.06
2019-03-25T12:28:05.458Z,96874.75
2019-03-25T12:30:37.971Z,96870.05
2019-03-25T12:33:10.227Z,96867.88
2019-03-25T12:35:43.848Z,96869.98
2019-03-25T12:38:16.732Z,96868.45
2019-03-25T12:40:49.016Z,96850.97
2019-03-25T12:43:21.221Z,96852.15
2019-03-25T12:45:53.852Z,96846.19
2019-03-25T12:48:26.671Z,96843.96
2019-03-25T12:50:59.311Z,96848.69
2019-03-25T12:53:31.425Z,96845.36
2019-03-25T12:56:03.636Z,96839.84
2019-03-25T12:58:36.265Z,96841.01
2019-03-25T13:01:08.625Z,96842.44
2019-03-25T13:03:41.039Z,96852.08
2019-03-25T13:06:13.474Z,96830.27
2019-03-25T13:08:45.689Z,96830.03
2019-03-25T13:11:18.323Z,96827.19
2019-03-25T13:13:52.128Z,96828.61
2019-03-25T13:16:24.283Z,96829.11
2019-03-25T13:18:56.663Z,96829.11
2019-03-25T13:21:30.092Z,96837.24
2019-03-25T13:24:02.186Z,96829.58
2019-03-25T13:26:36.862Z,96824.54
2019-03-25T13:29:09.061Z,96823.98
2019-03-25T13:31:41.342Z,96815.45
2019-03-25T13:34:13.539Z,96816.12
2019-03-25T13:36:46.950Z,96813.46
2019-03-25T13:39:20.415Z,96815.95
2019-03-25T13:41:52.824Z,96810.70
2019-03-25T13:44:25.230Z,96791.54
2019-03-25T13:46:57.513Z,96821.82
2019-03-25T13:49:29.795Z,96811.23
2019-03-25T13:52:03.323Z,96804.11
2019-03-25T13:54:35.554Z,96802.28
2019-03-25T13:57:08.831Z,96803.45
2019-03-25T13:59:41.086Z,96792.87
2019-03-25T14:02:13.424Z,96795.03
2019-03-25T14:04:45.636Z,96799.17
2019-03-25T14:07:17.867Z,96793.56
2019-03-25T14:09:50.118Z,96797.77
2019-03-25T14:12:22.531Z,96790.16
2019-03-25T14:14:54.905Z,96781.14
2019-03-25T14:17:28.842Z,96780.08
2019-03-25T14:20:01.271Z,96780.08
2019-03-25T14:22:33.792Z,96779.59
2019-03-25T14:25:06.530Z,96779.72
2019-03-25T14:27:38.918Z,96776.67
2019-03-25T14:30:14.830Z,96781.84
2019-03-25T14:32:45.877Z,96771.06
2019-03-25T14:35:18.129Z,96773.05
2019-03-25T14:37:50.454Z,96771.52
2019-03-25T14:40:22.577Z,96774.21
2019-03-25T14:42:58.071Z,96771.98
2019-03-25T14:45:30.242Z,96777.30
2019-03-25T14:48:02.480Z,96769.19
2019-03-25T14:50:34.774Z,96781.53
2019-03-25T14:53:07.165Z,96777.06
2019-03-25T14:55:39.354Z,96785.17
2019-03-25T14:58:11.725Z,96770.39
2019-03-25T15:00:45.071Z,96760.97
2019-03-25T15:03:17.300Z,96778.61
2019-03-25T15:05:49.660Z,96764.05
2019-03-25T15:08:21.864Z,96768.73
2019-03-25T15:10:54.069Z,96762.27
2019-03-25T15:13:26.379Z,96762.39
2019-03-25T15:15:58.800Z,96759.02
2019-03-25T15:18:33.944Z,96757.84
2019-03-25T15:21:08.169Z,96754.22
2019-03-25T15:23:40.599Z,96761.09
2019-03-25T15:26:13.208Z,96762.04
2019-03-25T15:28:47.908Z,96752.77
2019-03-25T15:31:21.264Z,96752.30
2019-03-25T15:33:53.539Z,96755.92
2019-03-25T15:36:25.784Z,96746.20
2019-03-25T15:38:58.318Z,96738.44
2019-03-25T15:41:31.433Z,96749.11
2019-03-25T15:44:03.699Z,96747.82
2019-03-25T15:46:38.174Z,96750.73
2019-03-25T15:49:10.585Z,96743.70
2019-03-25T15:51:43.871Z,96746.73
2019-03-25T15:54:16.408Z,96746.16
2019-03-25T15:56:48.690Z,96743.00
2019-03-25T15:59:22.106Z,96744.63
2019-03-25T16:01:54.322Z,96744.27
2019-03-25T16:04:26.696Z,96752.13
2019-03-25T16:06:58.987Z,96743.06
2019-03-25T16:09:31.656Z,96750.80
2019-03-25T16:12:05.639Z,96755.50
2019-03-25T16:14:37.865Z,96739.08
2019-03-25T16:17:10.189Z,96738.37
2019-03-25T16:19:42.291Z,96745.61
2019-03-25T16:22:14.495Z,96741.41
2019-03-25T16:24:46.687Z,96746.10
2019-03-25T16:27:18.937Z,96746.56
2019-03-25T16:29:51.178Z,96740.33
2019-03-25T16:32:23.748Z,96744.20
2019-03-25T16:34:55.921Z,96732.22
2019-03-25T16:37:28.118Z,96730.94
2019-03-25T16:40:01.734Z,96731.64
2019-03-25T16:42:34.000Z,96724.28
2019-03-25T16:45:08.072Z,96724.73
2019-03-25T16:47:40.475Z,96717.58
2019-03-25T16:50:12.771Z,96711.50
2019-03-25T16:52:45.592Z,96713.96
2019-03-25T16:55:18.961Z,96721.11
2019-03-25T16:57:51.290Z,96710.55
2019-03-25T17:00:27.560Z,96718.29
2019-03-25T17:02:57.747Z,96710.47
2019-03-25T17:05:31.316Z,96703.89
2019-03-25T17:08:04.543Z,96723.91
2019-03-25T17:10:38.316Z,96720.04
2019-03-25T17:13:10.995Z,96718.20
2019-03-25T17:15:43.528Z,96713.04
2019-03-25T17:18:15.762Z,96715.37
2019-03-25T17:20:48.305Z,96717.73
2019-03-25T17:23:20.608Z,96705.89
2019-03-25T17:25:53.525Z,96707.79
2019-03-25T17:28:25.757Z,96708.95
2019-03-25T17:30:57.982Z,96705.67
2019-03-25T17:33:30.131Z,96694.19
2019-03-25T17:36:02.361Z,96696.98
2019-03-25T17:38:34.585Z,96701.09
2019-03-25T17:41:07.211Z,96694.75
2019-03-25T17:43:39.594Z,96687.47
2019-03-25T17:46:12.999Z,96689.67
2019-03-25T17:48:45.439Z,96698.42
2019-03-25T17:51:18.171Z,96689.27
2019-03-25T17:53:52.028Z,96683.73
2019-03-25T17:56:24.329Z,96685.23
2019-03-25T17:58:56.704Z,96642.98
2019-03-25T18:01:32.946Z,96688.39
2019-03-25T18:04:06.773Z,96679.63
2019-03-25T18:06:39.164Z,96681.36
2019-03-25T18:09:12.172Z,96678.99
2019-03-25T18:11:44.602Z,96681.31
2019-03-25T18:14:17.170Z,96683.77
2019-03-25T18:16:49.486Z,96681.64
2019-03-25T18:19:21.720Z,96676.67
2019-03-25T18:21:53.957Z,96685.68
2019-03-25T18:24:26.567Z,96685.89
2019-03-25T18:26:58.819Z,96682.78
2019-03-25T18:29:31.699Z,96678.63
2019-03-25T18:32:04.061Z,96676.88
2019-03-25T18:34:36.255Z,96668.05
2019-03-25T18:37:08.458Z,96674.25
2019-03-25T18:39:40.729Z,96671.59
2019-03-25T18:42:14.168Z,96670.88
2019-03-25T18:44:46.530Z,96673.15
2019-03-25T18:47:18.807Z,96673.15
2019-03-25T18:49:52.457Z,96666.72
2019-03-25T18:52:25.652Z,96664.72
2019-03-25T18:55:00.524Z,96675.77
2019-03-25T18:57:33.521Z,96672.08
2019-03-25T19:00:06.850Z,96668.30
2019-03-25T19:02:39.277Z,96669.64
2019-03-25T19:05:11.692Z,96657.93
2019-03-25T19:07:47.938Z,96664.78
2019-03-25T19:10:27.949Z,96657.98
2019-03-25T19:13:01.862Z,96662.15
2019-03-25T19:15:34.306Z,96676.30
2019-03-25T19:18:06.432Z,96653.31
2019-03-25T19:20:39.711Z,96648.97
2019-03-25T19:23:13.347Z,96649.05
2019-03-25T19:25:45.522Z,96645.88
2019-03-25T19:28:19.573Z,96641.50
2019-03-25T19:30:51.891Z,96648.50
2019-03-25T19:33:24.547Z,96646.30
2019-03-25T19:35:56.982Z,96644.03
2019-03-25T19:38:29.498Z,96628.66
2019-03-25T19:41:01.835Z,96646.72
2019-03-25T19:43:34.185Z,96639.81
2019-03-25T19:46:06.501Z,96651.45
2019-03-25T19:48:38.797Z,96643.36
2019-03-25T19:51:11.347Z,96636.78
2019-03-25T19:53:43.646Z,96630.21
2019-03-25T19:56:15.867Z,96632.94
2019-03-25T19:58:49.043Z,96634.59
2019-03-25T20:01:21.370Z,96635.54
2019-03-25T20:03:54.857Z,96627.07
2019-03-25T20:06:27.201Z,96629.53
2019-03-25T20:08:59.479Z,96634.67
2019-03-25T20:11:31.905Z,96628.36
2019-03-25T20:14:05.180Z,96634.63
2019-03-25T20:16:37.567Z,96650.14
2019-03-25T20:19:09.831Z,96638.32
2019-03-25T20:21:43.706Z,96632.35
2019-03-25T20:24:16.782Z,96628.12
2019-03-25T20:26:49.113Z,96629.63
2019-03-25T20:29:21.618Z,96635.78
2019-03-25T20:31:53.887Z,96637.60
2019-03-25T20:34:26.092Z,96636.39
2019-03-25T20:36:58.366Z,96631.98
2019-03-25T20:39:30.858Z,96632.92
2019-03-25T20:42:03.697Z,96637.67
2019-03-25T20:44:35.991Z,96634.20
2019-03-25T20:47:09.488Z,96634.05
2019-03-25T20:49:43.416Z,96635.33
2019-03-25T20:52:15.649Z,96639.52
2019-03-25T20:54:49.232Z,96644.72
2019-03-25T20:57:21.637Z,96649.30
2019-03-25T20:59:54.606Z,96646.45
2019-03-25T21:02:27.069Z,96646.56
2019-03-25T21:05:00.710Z,96650.16
2019-03-25T21:07:33.206Z,96651.22
2019-03-25T21:10:06.620Z,96653.33
2019-03-25T21:12:39.194Z,96648.58
2019-03-25T21:15:11.813Z,96652.31
2019-03-25T21:17:44.336Z,96654.16
2019-03-25T21:20:16.795Z,96647.07
2019-03-25T21:22:51.573Z,96647.23
2019-03-25T21:25:23.893Z,96648.78
2019-03-25T21:27:56.233Z,96650.33
2019-03-25T21:30:30.260Z,96648.28
2019-03-25T21:33:03.071Z,96645.52
2019-03-25T21:35:35.341Z,96646.01
2019-03-25T21:38:07.912Z,96633.25
2019-03-25T21:40:40.229Z,96638.78
2019-03-25T21:43:12.530Z,96640.79
2019-03-25T21:45:44.989Z,96639.42
2019-03-25T21:48:17.964Z,96644.08
2019-03-25T21:50:50.536Z,96645.20
2019-03-25T21:53:24.969Z,96584.08
2019-03-25T21:55:57.897Z,96643.92
2019-03-25T21:58:31.828Z,96644.30
2019-03-25T22:01:04.335Z,96645.61
2019-03-25T22:03:36.785Z,96652.19
2019-03-25T22:06:10.297Z,96651.46
2019-03-25T22:08:43.263Z,96644.21
2019-03-25T22:11:16.631Z,96646.14
2019-03-25T22:13:49.093Z,96659.59
2019-03-25T22:16:21.319Z,96644.64
2019-03-25T22:18:53.622Z,96642.18
2019-03-25T22:21:26.114Z,96648.04
2019-03-25T22:23:58.562Z,96646.56
2019-03-25T22:26:30.958Z,96642.00
2019-03-25T22:29:03.268Z,96644.08
2019-03-25T22:31:35.549Z,96650.50
2019-03-25T22:34:08.305Z,96642.18
2019-03-25T22:36:40.498Z,96648.04
2019-03-25T22:39:12.768Z,96648.59
2019-03-25T22:41:45.053Z,96652.45
2019-03-25T22:44:18.508Z,96650.80
2019-03-25T22:46:50.604Z,96651.89
2019-03-25T22:49:24.172Z,96644.45
2019-03-25T22:51:57.403Z,96646.03
2019-03-25T22:54:29.629Z,96652.64
2019-03-25T22:57:03.030Z,96646.44
2019-03-25T22:59:35.329Z,96643.92
2019-03-25T23:02:09.013Z,96649.99
2019-03-25T23:04:42.154Z,96651.46
2019-03-25T23:07:14.569Z,96648.33
2019-03-25T23:09:46.872Z,96649.89
2019-03-25T23:12:19.195Z,96653.84
2019-03-25T23:14:51.518Z,96651.84
2019-03-25T23:17:23.757Z,96650.02
2019-03-25T23:19:57.305Z,96645.55
2019-03-25T23:22:30.223Z,96640.20
2019-03-25T23:25:03.073Z,96644.83
2019-03-25T23:27:35.224Z,96631.34
2019-03-25T23:30:11.126Z,96648.13
2019-03-25T23:32:44.577Z,96652.58
2019-03-25T23:35:17.076Z,96649.19
2019-03-25T23:37:49.990Z,96649.45
2019-03-25T23:40:22.807Z,96648.63
2019-03-25T23:42:56.293Z,96646.35
2019-03-25T23:45:29.214Z,96648.89
2019-03-25T23:48:01.726Z,96648.44
2019-03-25T23:50:36.579Z,96648.73
2019-03-25T23:53:08.915Z,96648.63
2019-03-25T23:55:41.289Z,96653.02
2019-03-25T23:58:13.610Z,96642.45
